createdAt,value
2023-02-25T00:00:10.607Z,99.90
2023-02-25T00:02:38.144Z,99.90
2023-02-25T00:05:07.275Z,99.90
2023-02-25T00:07:34.096Z,99.90
2023-02-25T00:10:01.901Z,99.90
2023-02-25T00:12:29.362Z,99.90
2023-02-25T00:14:56.338Z,99.90
2023-02-25T00:17:23.596Z,99.90
2023-02-25T00:19:50.626Z,99.90
2023-02-25T00:22:17.725Z,99.90
2023-02-25T00:24:44.533Z,99.90
2023-02-25T00:27:11.310Z,99.90
2023-02-25T00:29:38.247Z,99.90
2023-02-25T00:32:05.437Z,99.90
2023-02-25T00:34:32.301Z,99.90
2023-02-25T00:36:59.133Z,99.90
2023-02-25T00:39:42.344Z,99.90
2023-02-25T00:42:16.712Z,99.90
2023-02-25T00:44:45.385Z,99.90
2023-02-25T00:47:12.337Z,99.90
2023-02-25T00:49:39.080Z,99.90
2023-02-25T00:52:06.668Z,99.90
2023-02-25T00:54:34.698Z,99.90
2023-02-25T00:57:01.476Z,99.90
2023-02-25T00:59:28.237Z,99.90
2023-02-25T01:01:55.124Z,99.90
2023-02-25T01:04:22.011Z,99.90
2023-02-25T01:06:48.871Z,99.90
2023-02-25T01:09:15.948Z,99.90
2023-02-25T01:11:46.174Z,99.90
2023-02-25T01:14:19.596Z,99.90
2023-02-25T01:16:48.145Z,99.90
2023-02-25T01:19:21.632Z,99.90
2023-02-25T01:21:51.676Z,99.90
2023-02-25T01:24:22.525Z,99.90
2023-02-25T01:26:53.382Z,99.90
2023-02-25T01:29:26.432Z,99.90
2023-02-25T01:31:58.898Z,99.90
2023-02-25T01:34:26.612Z,99.90
2023-02-25T01:36:53.468Z,99.90
2023-02-25T01:39:22.191Z,99.90
2023-02-25T01:41:51.284Z,99.90
2023-02-25T01:44:30.206Z,99.90
2023-02-25T01:46:57.275Z,99.90
2023-02-25T01:49:32.539Z,99.90
2023-02-25T01:52:11.256Z,99.90
2023-02-25T01:54:39.194Z,99.90
2023-02-25T01:57:11.877Z,99.90
2023-02-25T01:59:40.176Z,99.90
2023-02-25T02:02:13.031Z,99.90
2023-02-25T02:04:42.882Z,99.90
2023-02-25T02:07:09.717Z,99.90
2023-02-25T02:09:37.702Z,99.90
2023-02-25T02:12:06.730Z,99.90
2023-02-25T02:14:38.783Z,99.90
2023-02-25T02:17:24.772Z,99.90
2023-02-25T02:20:15.630Z,99.90
2023-02-25T02:23:22.195Z,99.90
2023-02-25T02:26:00.338Z,99.90
2023-02-25T02:28:39.113Z,99.90
2023-02-25T02:31:08.817Z,99.90
2023-02-25T02:34:06.357Z,99.90
2023-02-25T02:36:36.212Z,99.90
2023-02-25T02:39:21.863Z,99.90
2023-02-25T02:42:24.425Z,99.90
2023-02-25T02:45:18.198Z,99.90
2023-02-25T02:47:50.830Z,99.90
2023-02-25T02:50:33.913Z,99.90
2023-02-25T02:53:07.868Z,99.90
2023-02-25T02:55:39.191Z,99.90
2023-02-25T02:58:36.966Z,99.90
2023-02-25T03:01:13.885Z,99.90
2023-02-25T03:03:52.228Z,99.90
2023-02-25T03:06:23.640Z,99.90
2023-02-25T03:08:56.640Z,99.90
2023-02-25T03:11:23.895Z,99.90
2023-02-25T03:13:52.531Z,99.90
2023-02-25T03:16:31.839Z,99.90
2023-02-25T03:19:10.618Z,99.90
2023-02-25T03:21:52.381Z,99.90
2023-02-25T03:24:35.886Z,99.90
2023-02-25T03:27:25.790Z,99.90
2023-02-25T03:29:54.595Z,99.90
2023-02-25T03:32:24.715Z,99.90
2023-02-25T03:34:57.969Z,99.90
2023-02-25T03:37:31.138Z,99.90
2023-02-25T03:40:08.622Z,99.90
2023-02-25T03:42:38.850Z,99.90
2023-02-25T03:45:08.534Z,99.90
2023-02-25T03:47:38.360Z,99.90
2023-02-25T03:50:20.475Z,99.90
2023-02-25T03:52:47.292Z,99.90
2023-02-25T03:55:16.550Z,99.90
2023-02-25T03:57:45.140Z,99.90
2023-02-25T04:00:24.030Z,99.90
2023-02-25T04:02:51.471Z,99.90
2023-02-25T04:05:20.741Z,99.90
2023-02-25T04:07:47.993Z,99.90
2023-02-25T04:10:17.441Z,99.90
2023-02-25T04:12:44.296Z,99.90
2023-02-25T04:15:11.580Z,99.90
2023-02-25T04:17:38.345Z,99.90
2023-02-25T04:20:06.351Z,99.90
2023-02-25T04:22:33.763Z,99.90
2023-02-25T04:25:00.841Z,99.90
2023-02-25T04:27:27.614Z,99.90
2023-02-25T04:29:54.451Z,99.90
2023-02-25T04:32:21.370Z,99.90
2023-02-25T04:34:48.216Z,99.90
2023-02-25T04:37:14.998Z,99.90
2023-02-25T04:39:41.923Z,99.90
2023-02-25T04:42:09.490Z,99.90
2023-02-25T04:44:36.334Z,99.90
2023-02-25T04:47:03.319Z,99.90
2023-02-25T04:49:30.091Z,99.90
2023-02-25T04:51:56.915Z,99.90
2023-02-25T04:54:23.698Z,99.90
2023-02-25T04:56:50.486Z,99.90
2023-02-25T04:59:17.603Z,99.90
2023-02-25T05:01:44.525Z,99.90
2023-02-25T05:04:11.362Z,99.90
2023-02-25T05:06:39.267Z,99.90
2023-02-25T05:09:06.075Z,99.90
2023-02-25T05:11:32.928Z,99.90
2023-02-25T05:13:59.774Z,99.90
2023-02-25T05:16:27.248Z,99.90
2023-02-25T05:18:54.644Z,99.90
2023-02-25T05:21:24.151Z,99.90
2023-02-25T05:23:53.294Z,99.90
2023-02-25T05:26:22.173Z,99.90
2023-02-25T05:28:57.428Z,99.90
2023-02-25T05:31:26.051Z,99.90
2023-02-25T05:33:53.606Z,99.90
2023-02-25T05:36:20.455Z,99.90
2023-02-25T05:38:47.575Z,99.90
2023-02-25T05:41:15.382Z,99.90
2023-02-25T05:43:42.484Z,99.90
2023-02-25T05:46:11.968Z,99.90
2023-02-25T05:48:46.701Z,99.90
2023-02-25T05:51:18.207Z,99.90
2023-02-25T05:53:45.414Z,99.90
2023-02-25T05:56:14.676Z,99.90
2023-02-25T05:58:41.652Z,99.90
2023-02-25T06:01:13.152Z,99.90
2023-02-25T06:03:41.071Z,99.90
2023-02-25T06:06:10.101Z,99.90
2023-02-25T06:08:36.898Z,99.90
2023-02-25T06:11:06.513Z,99.90
2023-02-25T06:13:34.476Z,99.90
2023-02-25T06:16:04.109Z,99.90
2023-02-25T06:18:36.694Z,99.90
2023-02-25T06:21:06.465Z,99.90
2023-02-25T06:23:37.953Z,99.90
2023-02-25T06:26:07.953Z,99.90
2023-02-25T06:28:36.140Z,99.90
2023-02-25T06:31:03.280Z,99.90
2023-02-25T06:33:31.592Z,99.90
2023-02-25T06:35:59.094Z,99.90
2023-02-25T06:38:25.959Z,99.90
2023-02-25T06:40:52.806Z,99.90
2023-02-25T06:43:19.664Z,99.90
2023-02-25T06:45:46.497Z,99.90
2023-02-25T06:48:13.275Z,99.90
2023-02-25T06:50:41.058Z,99.90
2023-02-25T06:53:08.695Z,99.90
2023-02-25T06:55:38.229Z,99.90
2023-02-25T06:58:05.031Z,99.90
2023-02-25T07:00:31.921Z,99.90
2023-02-25T07:02:58.700Z,99.90
2023-02-25T07:05:25.529Z,99.90
2023-02-25T07:07:52.286Z,99.90
2023-02-25T07:10:19.150Z,99.90
2023-02-25T07:12:45.918Z,99.90
2023-02-25T07:15:12.757Z,99.90
2023-02-25T07:17:39.514Z,99.90
2023-02-25T07:20:06.933Z,99.90
2023-02-25T07:22:33.702Z,99.90
2023-02-25T07:25:00.695Z,99.90
2023-02-25T07:27:27.513Z,99.90
2023-02-25T07:29:55.177Z,99.90
2023-02-25T07:32:25.060Z,99.90
2023-02-25T07:34:51.980Z,99.90
2023-02-25T07:37:18.866Z,99.90
2023-02-25T07:39:47.645Z,99.90
2023-02-25T07:42:14.825Z,99.90
2023-02-25T07:44:41.605Z,99.90
2023-02-25T07:47:08.420Z,99.90
2023-02-25T07:49:35.267Z,99.90
2023-02-25T07:52:02.133Z,99.90
2023-02-25T07:54:29.228Z,99.90
2023-02-25T07:56:56.035Z,99.90
2023-02-25T07:59:23.217Z,99.90
2023-02-25T08:01:50.096Z,99.90
2023-02-25T08:04:16.942Z,99.90
2023-02-25T08:06:43.775Z,99.90
2023-02-25T08:09:12.291Z,99.90
2023-02-25T08:11:40.742Z,99.90
2023-02-25T08:14:07.528Z,99.90
2023-02-25T08:16:34.788Z,99.90
2023-02-25T08:19:01.886Z,99.90
2023-02-25T08:21:30.869Z,99.90
2023-02-25T08:23:58.190Z,99.90
2023-02-25T08:26:27.550Z,99.90
2023-02-25T08:28:56.380Z,99.90
2023-02-25T08:31:23.700Z,99.90
2023-02-25T08:33:52.959Z,99.90
2023-02-25T08:36:23.578Z,99.90
2023-02-25T08:38:51.378Z,99.90
2023-02-25T08:41:19.621Z,99.90
2023-02-25T08:43:51.986Z,99.90
2023-02-25T08:46:21.028Z,99.90
2023-02-25T08:48:51.931Z,99.90
2023-02-25T08:51:19.883Z,99.90
2023-02-25T08:53:46.721Z,99.90
2023-02-25T08:56:16.433Z,99.90
2023-02-25T08:58:43.690Z,99.90
2023-02-25T09:01:16.104Z,99.90
2023-02-25T09:03:52.770Z,99.90
2023-02-25T09:06:25.518Z,99.90
2023-02-25T09:08:52.834Z,99.90
2023-02-25T09:11:20.595Z,99.90
2023-02-25T09:13:48.068Z,99.90
2023-02-25T09:16:17.997Z,99.90
2023-02-25T09:18:46.410Z,99.90
2023-02-25T09:21:14.121Z,99.90
2023-02-25T09:23:41.416Z,99.90
2023-02-25T09:26:08.909Z,99.90
2023-02-25T09:28:36.067Z,99.90
2023-02-25T09:31:03.405Z,99.90
2023-02-25T09:33:35.953Z,99.90
2023-02-25T09:36:17.132Z,99.90
2023-02-25T09:38:45.571Z,99.90
2023-02-25T09:41:40.374Z,99.90
2023-02-25T09:44:15.613Z,99.90
2023-02-25T09:47:02.140Z,99.90
2023-02-25T09:49:41.021Z,99.90
2023-02-25T09:52:28.800Z,99.90
2023-02-25T09:55:32.848Z,99.90
2023-02-25T09:58:11.799Z,99.90
2023-02-25T10:00:47.070Z,99.90
2023-02-25T10:03:39.954Z,99.90
2023-02-25T10:06:33.098Z,99.90
2023-02-25T10:09:33.770Z,99.90
2023-02-25T10:12:23.750Z,99.90
2023-02-25T10:15:10.460Z,99.90
2023-02-25T10:18:04.938Z,99.90
2023-02-25T10:20:38.883Z,99.90
2023-02-25T10:23:16.024Z,99.90
2023-02-25T10:26:15.057Z,99.90
2023-02-25T10:28:44.029Z,99.90
2023-02-25T10:31:18.626Z,99.90
2023-02-25T10:33:49.050Z,99.90
2023-02-25T10:36:25.632Z,99.90
2023-02-25T10:38:53.870Z,99.90
2023-02-25T10:41:23.774Z,99.90
2023-02-25T10:43:51.412Z,99.90
2023-02-25T10:46:35.916Z,99.90
2023-02-25T10:49:26.916Z,99.90
2023-02-25T10:52:05.920Z,99.90
2023-02-25T10:54:49.826Z,99.90
2023-02-25T10:57:28.858Z,99.90
2023-02-25T11:00:01.824Z,99.90
2023-02-25T11:02:31.576Z,99.90
2023-02-25T11:04:58.585Z,99.90
2023-02-25T11:07:32.959Z,99.90
2023-02-25T11:10:09.380Z,99.90
2023-02-25T11:13:06.110Z,99.90
2023-02-25T11:15:45.737Z,99.90
2023-02-25T11:18:23.834Z,99.90
2023-02-25T11:20:59.437Z,99.90
2023-02-25T11:23:38.422Z,99.90
2023-02-25T11:26:06.983Z,99.90
2023-02-25T11:28:44.257Z,99.90
2023-02-25T11:31:20.955Z,99.90
2023-02-25T11:33:57.397Z,99.90
2023-02-25T11:36:29.254Z,99.70
2023-02-25T11:39:15.512Z,99.90
2023-02-25T11:41:44.250Z,99.80
2023-02-25T11:44:20.879Z,98.60
2023-02-25T11:47:00.129Z,97.80
2023-02-25T11:49:54.066Z,96.10
2023-02-25T11:52:42.341Z,95.00
2023-02-25T11:55:44.340Z,95.70
2023-02-25T11:58:13.824Z,95.30
2023-02-25T12:00:53.769Z,95.50
2023-02-25T12:03:38.995Z,95.30
2023-02-25T12:06:37.176Z,94.70
2023-02-25T12:09:31.752Z,93.20
2023-02-25T12:12:01.228Z,90.50
2023-02-25T12:14:46.392Z,80.60
2023-02-25T12:17:43.994Z,76.10
2023-02-25T12:20:37.798Z,70.20
2023-02-25T12:23:29.673Z,65.70
2023-02-25T12:26:13.972Z,65.40
2023-02-25T12:29:10.721Z,69.50
2023-02-25T12:31:52.537Z,69.00
2023-02-25T12:34:48.439Z,71.70
2023-02-25T12:37:36.732Z,74.60
2023-02-25T12:40:25.081Z,77.00
2023-02-25T12:43:16.008Z,78.30
2023-02-25T12:46:05.977Z,80.10
2023-02-25T12:48:39.012Z,82.10
2023-02-25T12:51:44.632Z,79.30
2023-02-25T12:54:30.033Z,77.50
2023-02-25T12:57:19.815Z,76.90
2023-02-25T13:00:03.114Z,75.70
2023-02-25T13:02:41.932Z,72.70
2023-02-25T13:05:39.024Z,70.40
2023-02-25T13:08:45.045Z,66.20
2023-02-25T13:11:54.638Z,59.70
2023-02-25T13:14:30.139Z,56.20
2023-02-25T13:17:21.822Z,54.50
2023-02-25T13:19:59.773Z,51.10
2023-02-25T13:22:46.788Z,49.70
2023-02-25T13:25:51.628Z,47.50
2023-02-25T13:28:36.894Z,44.30
2023-02-25T13:31:18.169Z,43.70
2023-02-25T13:33:58.831Z,44.70
2023-02-25T13:36:42.394Z,45.40
2023-02-25T13:39:18.010Z,46.40
2023-02-25T13:42:00.000Z,50.20
2023-02-25T13:44:54.906Z,51.80
2023-02-25T13:47:43.555Z,54.50
2023-02-25T13:50:47.084Z,56.30
2023-02-25T13:53:43.333Z,57.80
2023-02-25T13:56:32.174Z,57.70
2023-02-25T13:59:20.602Z,56.30
2023-02-25T14:02:01.407Z,59.30
2023-02-25T14:04:47.036Z,62.80
2023-02-25T14:07:44.037Z,65.40
2023-02-25T14:10:25.774Z,68.10
2023-02-25T14:13:16.219Z,70.10
2023-02-25T14:15:45.989Z,73.40
2023-02-25T14:18:22.722Z,75.30
2023-02-25T14:21:28.559Z,77.20
2023-02-25T14:24:24.244Z,80.50
2023-02-25T14:27:08.411Z,82.90
2023-02-25T14:29:43.230Z,85.50
2023-02-25T14:32:47.703Z,87.60
2023-02-25T14:35:34.485Z,88.70
2023-02-25T14:38:32.985Z,88.80
2023-02-25T14:41:29.285Z,90.30
2023-02-25T14:44:01.382Z,91.80
2023-02-25T14:46:33.317Z,92.70
2023-02-25T14:49:29.168Z,92.90
2023-02-25T14:52:24.871Z,94.00
2023-02-25T14:55:03.835Z,95.30
2023-02-25T14:58:07.190Z,96.10
2023-02-25T15:01:10.959Z,97.50
2023-02-25T15:03:43.882Z,98.30
2023-02-25T15:06:37.892Z,98.60
2023-02-25T15:09:16.497Z,97.70
2023-02-25T15:12:10.620Z,97.50
2023-02-25T15:14:52.486Z,97.10
2023-02-25T15:17:47.006Z,96.80
2023-02-25T15:20:29.212Z,96.70
2023-02-25T15:23:11.828Z,96.80
2023-02-25T15:25:44.853Z,97.10
2023-02-25T15:28:29.829Z,96.80
2023-02-25T15:31:02.742Z,95.90
2023-02-25T15:33:45.536Z,95.80
2023-02-25T15:36:15.292Z,96.30
2023-02-25T15:38:56.315Z,97.00
2023-02-25T15:41:35.240Z,97.70
2023-02-25T15:44:08.109Z,98.50
2023-02-25T15:46:34.920Z,99.40
2023-02-25T15:49:04.954Z,99.70
2023-02-25T15:51:48.651Z,99.70
2023-02-25T15:54:30.738Z,99.80
2023-02-25T15:57:03.166Z,99.90
2023-02-25T15:59:55.398Z,99.90
2023-02-25T16:02:33.374Z,99.90
2023-02-25T16:05:18.289Z,99.90
2023-02-25T16:07:49.375Z,99.90
2023-02-25T16:10:16.645Z,99.90
2023-02-25T16:12:45.958Z,99.90
2023-02-25T16:15:40.237Z,99.70
2023-02-25T16:18:16.780Z,99.70
2023-02-25T16:20:48.279Z,99.90
2023-02-25T16:23:16.538Z,99.90
2023-02-25T16:26:08.958Z,99.90
2023-02-25T16:29:00.351Z,99.90
2023-02-25T16:31:42.064Z,99.90
2023-02-25T16:34:59.969Z,99.90
2023-02-25T16:37:51.424Z,99.90
2023-02-25T16:40:40.117Z,99.90
2023-02-25T16:43:17.181Z,99.90
2023-02-25T16:46:02.660Z,99.90
2023-02-25T16:48:33.583Z,99.90
2023-02-25T16:51:32.211Z,99.90
2023-02-25T16:54:12.680Z,99.90
2023-02-25T16:56:40.799Z,99.90
2023-02-25T16:59:18.551Z,99.90
2023-02-25T17:01:48.389Z,99.90
2023-02-25T17:04:36.011Z,99.90
2023-02-25T17:07:24.434Z,99.90
2023-02-25T17:10:02.920Z,99.90
2023-02-25T17:12:35.172Z,99.90
2023-02-25T17:15:05.967Z,99.90
2023-02-25T17:17:39.354Z,99.90
2023-02-25T17:20:13.955Z,99.90
2023-02-25T17:22:40.810Z,99.90
2023-02-25T17:25:14.420Z,99.90
2023-02-25T17:27:42.553Z,99.90
2023-02-25T17:30:37.212Z,99.90
2023-02-25T17:33:05.496Z,99.90
2023-02-25T17:35:33.168Z,99.90
2023-02-25T17:38:00.267Z,99.90
2023-02-25T17:40:28.968Z,99.90
2023-02-25T17:43:35.924Z,99.90
2023-02-25T17:46:13.573Z,99.90
2023-02-25T17:48:43.502Z,99.90
2023-02-25T17:51:11.216Z,99.90
2023-02-25T17:53:43.799Z,99.90
2023-02-25T17:56:18.931Z,99.90
2023-02-25T17:58:46.061Z,99.90
2023-02-25T18:01:29.341Z,99.90
2023-02-25T18:03:59.833Z,99.90
2023-02-25T18:06:44.907Z,99.90
2023-02-25T18:09:38.045Z,99.90
2023-02-25T18:12:08.295Z,99.90
2023-02-25T18:14:36.889Z,99.90
2023-02-25T18:17:31.190Z,99.90
2023-02-25T18:20:02.028Z,99.90
2023-02-25T18:22:36.720Z,99.90
2023-02-25T18:25:26.954Z,99.90
2023-02-25T18:27:54.921Z,99.90
2023-02-25T18:30:24.404Z,99.90
2023-02-25T18:32:51.823Z,99.90
2023-02-25T18:35:18.826Z,99.90
2023-02-25T18:37:48.537Z,99.90
2023-02-25T18:40:21.657Z,99.90
2023-02-25T18:42:48.425Z,99.90
2023-02-25T18:45:21.200Z,99.90
2023-02-25T18:47:48.440Z,99.90
2023-02-25T18:50:15.934Z,99.90
2023-02-25T18:52:42.997Z,99.90
2023-02-25T18:55:32.973Z,99.90
2023-02-25T18:57:59.944Z,99.90
2023-02-25T19:00:29.026Z,99.90
2023-02-25T19:03:01.727Z,99.90
2023-02-25T19:05:29.767Z,99.90
2023-02-25T19:07:57.196Z,99.90
2023-02-25T19:10:30.443Z,99.90
2023-02-25T19:13:06.407Z,99.90
2023-02-25T19:15:33.741Z,99.90
2023-02-25T19:18:00.515Z,99.90
2023-02-25T19:20:27.503Z,99.90
2023-02-25T19:22:54.431Z,99.90
2023-02-25T19:25:25.021Z,99.90
2023-02-25T19:27:53.554Z,99.90
2023-02-25T19:30:26.239Z,99.90
2023-02-25T19:32:53.045Z,99.90
2023-02-25T19:35:19.873Z,99.90
2023-02-25T19:37:46.661Z,99.90
2023-02-25T19:40:16.083Z,99.90
2023-02-25T19:42:44.591Z,99.90
2023-02-25T19:45:15.612Z,99.90
2023-02-25T19:47:42.597Z,99.90
2023-02-25T19:50:11.346Z,99.90
2023-02-25T19:52:39.016Z,99.90
2023-02-25T19:55:07.197Z,99.90
2023-02-25T19:57:34.438Z,99.90
2023-02-25T20:00:01.253Z,99.90
2023-02-25T20:02:28.057Z,99.90
2023-02-25T20:04:54.919Z,99.90
2023-02-25T20:07:21.682Z,99.90
2023-02-25T20:09:48.584Z,99.90
2023-02-25T20:12:15.562Z,99.90
2023-02-25T20:14:42.428Z,99.90
2023-02-25T20:17:09.525Z,99.90
2023-02-25T20:19:36.549Z,99.90
2023-02-25T20:22:05.625Z,99.90
2023-02-25T20:24:32.910Z,99.90
2023-02-25T20:26:59.912Z,99.90
2023-02-25T20:29:27.389Z,99.90
2023-02-25T20:31:55.814Z,99.90
2023-02-25T20:34:25.550Z,99.90
2023-02-25T20:36:57.934Z,99.90
2023-02-25T20:39:44.053Z,99.90
2023-02-25T20:42:20.643Z,99.90
2023-02-25T20:44:50.976Z,99.90
2023-02-25T20:47:44.286Z,99.90
2023-02-25T20:50:15.510Z,99.90
2023-02-25T20:52:42.746Z,99.90
2023-02-25T20:55:10.528Z,99.90
2023-02-25T20:57:37.409Z,99.90
2023-02-25T21:00:07.610Z,99.90
2023-02-25T21:02:34.864Z,99.90
2023-02-25T21:05:01.742Z,99.90
2023-02-25T21:07:28.603Z,99.90
2023-02-25T21:09:55.520Z,99.90
2023-02-25T21:12:22.292Z,99.90
2023-02-25T21:14:49.066Z,99.90
2023-02-25T21:17:15.876Z,99.90
2023-02-25T21:19:42.997Z,99.90
2023-02-25T21:22:09.913Z,99.90
2023-02-25T21:24:36.851Z,99.90
2023-02-25T21:27:04.399Z,99.90
2023-02-25T21:29:32.261Z,99.90
2023-02-25T21:31:59.164Z,99.90
2023-02-25T21:34:26.193Z,99.90
2023-02-25T21:36:53.022Z,99.90
2023-02-25T21:39:19.802Z,99.90
2023-02-25T21:41:46.608Z,99.90
2023-02-25T21:44:13.856Z,99.90
2023-02-25T21:46:41.043Z,99.90
2023-02-25T21:49:10.449Z,99.90
2023-02-25T21:51:37.534Z,99.90
2023-02-25T21:54:04.460Z,99.90
2023-02-25T21:56:32.472Z,99.90
2023-02-25T21:59:03.378Z,99.90
2023-02-25T22:01:39.009Z,99.90
2023-02-25T22:04:06.317Z,99.90
2023-02-25T22:06:33.315Z,99.90
2023-02-25T22:09:00.581Z,99.90
2023-02-25T22:11:30.270Z,99.90
2023-02-25T22:13:58.722Z,99.90
2023-02-25T22:16:26.349Z,99.90
2023-02-25T22:18:53.562Z,99.90
2023-02-25T22:21:24.158Z,99.90
2023-02-25T22:23:53.190Z,99.90
2023-02-25T22:26:23.042Z,99.90
2023-02-25T22:28:53.957Z,99.90
2023-02-25T22:31:21.602Z,99.90
2023-02-25T22:33:48.673Z,99.90
2023-02-25T22:36:17.214Z,99.90
2023-02-25T22:38:45.327Z,99.90
2023-02-25T22:41:21.369Z,99.90
2023-02-25T22:43:48.898Z,99.90
2023-02-25T22:46:18.909Z,99.90
2023-02-25T22:48:47.475Z,99.90
2023-02-25T22:51:29.012Z,99.90
2023-02-25T22:53:56.409Z,99.90
2023-02-25T22:56:24.238Z,99.90
2023-02-25T22:58:51.638Z,99.90
2023-02-25T23:01:20.785Z,99.90
2023-02-25T23:03:48.819Z,99.90
2023-02-25T23:06:18.682Z,99.90
2023-02-25T23:08:46.134Z,99.90
2023-02-25T23:11:24.743Z,99.90
2023-02-25T23:13:53.584Z,99.90
2023-02-25T23:16:22.145Z,99.90
2023-02-25T23:18:50.526Z,99.90
2023-02-25T23:21:22.084Z,99.90
2023-02-25T23:23:53.945Z,99.90
2023-02-25T23:26:23.962Z,99.90
2023-02-25T23:28:55.583Z,99.90
2023-02-25T23:31:25.194Z,99.90
2023-02-25T23:33:57.461Z,99.90
2023-02-25T23:36:25.292Z,99.90
2023-02-25T23:39:00.796Z,99.90
2023-02-25T23:41:28.720Z,99.90
2023-02-25T23:43:57.591Z,99.90
2023-02-25T23:46:26.666Z,99.90
2023-02-25T23:49:03.023Z,99.90
2023-02-25T23:51:30.225Z,99.90
2023-02-25T23:54:01.853Z,99.90
2023-02-25T23:56:31.077Z,99.90
2023-02-25T23:58:58.427Z,99.90
